地図

経路データ

SID SEASON NUMBER BASIN SUBBASIN NAME ISO_TIME NATURE LAT LON WMO_WIND WMO_PRES WMO_AGENCY TRACK_TYPE DIST2LAND LANDFALL IFLAG USA_AGENCY USA_ATCF_ID USA_LAT USA_LON USA_RECORD USA_STATUS USA_WIND USA_PRES USA_SSHS USA_R34_NE USA_R34_SE USA_R34_SW USA_R34_NW USA_R50_NE USA_R50_SE USA_R50_SW USA_R50_NW USA_R64_NE USA_R64_SE USA_R64_SW USA_R64_NW USA_POCI USA_ROCI USA_RMW USA_EYE TOKYO_LAT TOKYO_LON TOKYO_GRADE TOKYO_WIND TOKYO_PRES TOKYO_R50_DIR TOKYO_R50_LONG TOKYO_R50_SHORT TOKYO_R30_DIR TOKYO_R30_LONG TOKYO_R30_SHORT TOKYO_LAND CMA_LAT CMA_LON CMA_CAT CMA_WIND CMA_PRES HKO_LAT HKO_LON HKO_CAT HKO_WIND HKO_PRES NEWDELHI_LAT NEWDELHI_LON NEWDELHI_GRADE NEWDELHI_WIND NEWDELHI_PRES NEWDELHI_CI NEWDELHI_DP NEWDELHI_POCI REUNION_LAT REUNION_LON REUNION_TYPE REUNION_WIND REUNION_PRES REUNION_TNUM REUNION_CI REUNION_RMW REUNION_R34_NE REUNION_R34_SE REUNION_R34_SW REUNION_R34_NW REUNION_R50_NE REUNION_R50_SE REUNION_R50_SW REUNION_R50_NW REUNION_R64_NE REUNION_R64_SE REUNION_R64_SW REUNION_R64_NW BOM_LAT BOM_LON BOM_TYPE BOM_WIND BOM_PRES BOM_TNUM BOM_CI BOM_RMW BOM_R34_NE BOM_R34_SE BOM_R34_SW BOM_R34_NW BOM_R50_NE BOM_R50_SE BOM_R50_SW BOM_R50_NW BOM_R64_NE BOM_R64_SE BOM_R64_SW BOM_R64_NW BOM_ROCI BOM_POCI BOM_EYE BOM_POS_METHOD BOM_PRES_METHOD NADI_LAT NADI_LON NADI_CAT NADI_WIND NADI_PRES WELLINGTON_LAT WELLINGTON_LON WELLINGTON_WIND WELLINGTON_PRES DS824_LAT DS824_LON DS824_STAGE DS824_WIND DS824_PRES TD9636_LAT TD9636_LON TD9636_STAGE TD9636_WIND TD9636_PRES TD9635_LAT TD9635_LON TD9635_WIND TD9635_PRES TD9635_ROCI NEUMANN_LAT NEUMANN_LON NEUMANN_CLASS NEUMANN_WIND NEUMANN_PRES MLC_LAT MLC_LON MLC_CLASS MLC_WIND MLC_PRES USA_GUST BOM_GUST BOM_GUST_PER REUNION_GUST REUNION_GUST_PER USA_SEAHGT USA_SEARAD_NE USA_SEARAD_SE USA_SEARAD_SW USA_SEARAD_NW STORM_SPEED STORM_DIR
1987225N13313 1987 57 NA NA NOT_NAMED 1987-08-13 00:00:00 TS 12.5000 -47.0000 20 hurdat_atl main 1023 984 O_____________ hurdat_atl AL041987 12.5000 -47.0000 TD 20 -1 23 287
1987225N13313 1987 57 NA NA NOT_NAMED 1987-08-13 03:00:00 TS 12.8411 -48.1320 main 984 968 P_____________ AL041987 12.8411 -48.1320 TD 22 -1 23 288
1987225N13313 1987 57 NA NA NOT_NAMED 1987-08-13 06:00:00 TS 13.2000 -49.2000 25 hurdat_atl main 969 962 O_____________ hurdat_atl AL041987 13.2000 -49.2000 TD 25 -1 21 291
1987225N13313 1987 57 NA NA NOT_NAMED 1987-08-13 09:00:00 TS 13.5921 -50.1527 main 967 962 P_____________ AL041987 13.5921 -50.1527 TD 27 -1 19 295
1987225N13313 1987 57 NA NA NOT_NAMED 1987-08-13 12:00:00 TS 14.0000 -51.0000 30 hurdat_atl main 972 968 O_____________ hurdat_atl AL041987 14.0000 -51.0000 TD 30 -1 18 297
1987225N13313 1987 57 NA NA NOT_NAMED 1987-08-13 15:00:00 TS 14.4070 -51.7728 main 987 987 P_____________ AL041987 14.4070 -51.7728 TD 30 -1 17 299
1987225N13313 1987 57 NA NA NOT_NAMED 1987-08-13 18:00:00 TS 14.8000 -52.5000 30 hurdat_atl main 1014 978 O_____________ hurdat_atl AL041987 14.8000 -52.5000 TD 30 -1 16 298
1987225N13313 1987 57 NA NA NOT_NAMED 1987-08-13 21:00:00 TS 15.1572 -53.2503 main 974 929 P_____________ AL041987 15.1572 -53.2503 TD 30 -1 16 296
1987225N13313 1987 57 NA NA NOT_NAMED 1987-08-14 00:00:00 TS 15.5000 -54.0000 30 hurdat_atl main 929 889 O_____________ hurdat_atl AL041987 15.5000 -54.0000 TD 30 -1 16 295
1987225N13313 1987 57 NA NA NOT_NAMED 1987-08-14 03:00:00 TS 15.8422 -54.7503 main 881 855 P_____________ AL041987 15.8422 -54.7503 TD 30 -1 16 296
1987225N13313 1987 57 NA NA NOT_NAMED 1987-08-14 06:00:00 TS 16.2000 -55.5000 30 hurdat_atl main 856 837 O_____________ hurdat_atl AL041987 16.2000 -55.5000 TD 30 -1 16 299
1987225N13313 1987 57 NA NA NOT_NAMED 1987-08-14 09:00:00 TS 16.6372 -56.2497 main 839 827 P_____________ AL041987 16.6372 -56.2497 TD 30 -1 16 299
1987225N13313 1987 57 NA NA NOT_NAMED 1987-08-14 12:00:00 TS 17.0000 -57.0000 30 hurdat_atl main 827 800 O_____________ hurdat_atl AL041987 17.0000 -57.0000 TD 30 -1 15 288
1987225N13313 1987 57 NA NA NOT_NAMED 1987-08-14 15:00:00 TS 17.0993 -57.7139 main 800 760 P_____________ AL041987 17.0993 -57.7139 TD 27 -1 14 278
1987225N13313 1987 57 NA NA NOT_NAMED 1987-08-14 18:00:00 TS 17.2000 -58.5000 25 hurdat_atl main 760 659 O_____________ hurdat_atl AL041987 17.2000 -58.5000 TD 25 -1 18 286
1987225N13313 1987 57 NA NA NOT_NAMED 1987-08-14 21:00:00 TS 17.5778 -59.4841 main 649 550 P_____________ AL041987 17.5778 -59.4841 TD 22 -1 21 293
1987225N13313 1987 57 NA NA NOT_NAMED 1987-08-15 00:00:00 TS 18.0000 -60.5000 20 hurdat_atl main 539 453 O_____________ hurdat_atl AL041987 18.0000 -60.5000 TD 20 -1 19 291
1987225N13313 1987 57 NA NA NOT_NAMED 1987-08-15 03:00:00 TS 18.2717 -61.3657 main 443 358 P_____________ AL041987 18.2717 -61.3657 TD 20 -1 17 287
1987225N13313 1987 57 NA CS NOT_NAMED 1987-08-15 06:00:00 TS 18.5000 -62.2000 20 hurdat_atl main 358 276 O_____________ hurdat_atl AL041987 18.5000 -62.2000 TD 20 -1 17 286
1987225N13313 1987 57 NA CS NOT_NAMED 1987-08-15 09:00:00 TS 18.7436 -63.0817 main 265 191 P_____________ AL041987 18.7436 -63.0817 TD 17 -1 18 286
1987225N13313 1987 57 NA NA NOT_NAMED 1987-08-15 12:00:00 TS 19.0000 -64.0000 15 hurdat_atl main 181 O_____________ hurdat_atl AL041987 19.0000 -64.0000 TD 15 -1 18 286

IBTrACS Databaseについて

本データベースは、米国NOAAが公開する1842年以降の世界の熱帯低気圧のベストトラックデータアーカイブInternational Best Track Archive for Climate Stewardship (IBTrACS)を、ウェブで閲覧しやすい形式に変換したものです。

最終更新日:2021-10-21